Portada
METAR-TAF:

METAR-TAF

Aeropuertos :

Zabol, Irán

latitud: 31-20N, longitud: 061-29E, altitud: 489 m

Observación

El informe se hizo hace 2 horas y 13 minutos, a las 21:00 UTC
Viento 8 kt del norte
Temperatura 10°C
Humedad 93%
Presión 1019 hPa
Visibilidad: 7000 m
Escasas nubes a una altura de 4000 ft
Nubes dispersas a una altura de 9000 ft

METAR: OIZB 242100Z 35008KT 7000 FEW040 SCT090 10/09 Q1019

Hora: 02:43 (23:13 UTC)


TAF: falta

Observaciones y pronósticos meteorológicos de más de 4000 aeropuertos (mensajes METAR y TAF).

Los puntos amarillos y rojos representan las estaciones disponibles.

Ponga el ratón en el punto deseado para ver el nombre de la estación.

Haga clic para ver las observaciones y los pronósticos meteorológicos.

Para cambiar el mapa : haga clic en los botones verdes con una cruz de color negro para hacer un zoom, en el botón verde con un guión para alejar o en las flechas verdes para mapas adyacentes.


METAR-TAF: